首页
METAR-TAF:

METAR-TAF

机场 :

Resolute, 努那武特, 加拿大

纬度: 74-43N, 经度: 094-59W, 海拔: 67米

当前天气观测

该预报发布于56分钟前的17:00 UTC
风速10节,风向西
温度 -19°C
湿度 84%
气压 1019 hPa
能見度: 12.9公里
多云层高于800英尺
小雪

METAR: CYRB 201700Z 28010KT 8SM -SN BKN008 M19/M21 A3010 RMK ST6 SLP205

时间: 11:56 (17:56 UTC)

预报

该预报发布于18分钟前的17:38 UTC
预报有效从20日的 18点(UTC)到 21日的 18点(UTC)
风速10节,风向西
能見度: 8.0公里
多云层高于800英尺
小雪, 轻雾
短暂存在
从 20日的 18点(UTC)到 21日的 15点(UTC)
能見度: 10公里
散云层高于800英尺
多云层高于1200英尺
多云层高于4000英尺
从 21日的 1500点(UTC)
风速8节,风向北转东北
能見度: 10公里
多云层高于4000英尺

TAF: CYRB 201738Z 2018/2118 28010KT 5SM -SN BR BKN008 TEMPO 2018/2115 P6SM NSW SCT008 BKN012 BKN040 FM211500 02008KT P6SM BKN040 RMK NXT FCST BY 210000Z

超过4000个机场的气象观测和天气预报(METAR&TAF报告)。

可查询的气象台以黄色和红色小点在地图上表示。

将鼠标移到小点上方,可查看气象台名称。

然后点击查看天气观测和预报。

如需切换地图:点击带黑十字的绿色按钮放大地图;点击带横线的绿色按钮缩小地图;或者点击绿色箭头查看邻近地区的地图。


METAR-TAF: